Time;durP1;ratioP1;P1;durP2;ratioP2;P2;SDS_P1;SDS_P2;PMS_P1;PMS_P2;Temp;Humidity;BMP_temperature;BMP_pressure;BME280_temperature;BME280_humidity;BME280_pressure;Samples;Min_cycle;Max_cycle;Signal;HPM_P1;HPM_P2
2023/07/05 00:00:17;;;;;;;10.25;2.00;;;;;;;16.26;87.26;100524.69;5036372;28;20033;-73
2023/07/05 00:02:42;;;;;;;14.43;2.08;;;;;;;16.29;86.89;100521.50;5054595;28;20373;-73
2023/07/05 00:05:08;;;;;;;11.45;2.10;;;;;;;16.33;87.04;100519.94;5019847;28;20040;-74
2023/07/05 00:07:34;;;;;;;12.43;2.30;;;;;;;16.29;87.30;100529.66;5055000;28;20028;-74
2023/07/05 00:09:59;;;;;;;13.07;2.67;;;;;;;16.24;87.90;100524.13;5023828;28;20025;-74
2023/07/05 00:12:25;;;;;;;9.02;1.70;;;;;;;16.01;89.04;100522.31;5058651;28;20071;-74
2023/07/05 00:14:51;;;;;;;14.52;2.28;;;;;;;16.12;88.24;100528.75;5039900;28;20029;-74
2023/07/05 00:17:16;;;;;;;12.52;2.15;;;;;;;16.06;88.44;100522.44;5039460;28;20436;-74
2023/07/05 00:20:02;;;;;;;11.52;2.50;;;;;;;16.23;88.23;100527.09;5057138;28;20484;-74
2023/07/05 00:22:28;;;;;;;11.40;2.20;;;;;;;16.13;88.25;100525.00;5038846;28;20025;-74
2023/07/05 00:24:54;;;;;;;12.07;2.00;;;;;;;16.13;88.91;100536.69;5057350;28;20223;-74
2023/07/05 00:27:21;;;;;;;14.32;2.25;;;;;;;16.02;88.68;100512.28;5057320;28;20051;-73
2023/07/05 00:29:47;;;;;;;12.15;1.92;;;;;;;16.20;88.32;100533.81;5057552;28;20414;-74
2023/07/05 00:32:12;;;;;;;14.20;2.55;;;;;;;16.19;88.80;100532.16;5022783;28;20032;-74
2023/07/05 00:34:38;;;;;;;13.07;2.10;;;;;;;16.22;88.25;100537.09;5039932;28;20139;-74
2023/07/05 00:37:03;;;;;;;9.52;2.20;;;;;;;16.12;89.64;100539.63;5057109;28;20037;-74
2023/07/05 00:39:29;;;;;;;11.02;2.22;;;;;;;15.92;89.45;100511.00;5023717;28;20506;-74
2023/07/05 00:41:55;;;;;;;12.00;2.38;;;;;;;16.02;89.15;100515.81;5056749;28;20033;-74
2023/07/05 00:44:20;;;;;;;11.85;2.28;;;;;;;16.11;89.46;100548.84;5037809;28;20076;-74
2023/07/05 00:46:50;;;;;;;10.48;2.60;;;;;;;16.05;89.87;100541.66;5040192;28;20036;-74
2023/07/05 00:49:18;;;;;;;9.63;1.90;;;;;;;16.12;89.71;100550.47;5057658;28;20029;-75
2023/07/05 00:51:52;;;;;;;13.65;1.85;;;;;;;15.88;89.72;100517.19;5041827;28;20433;-73
2023/07/05 00:54:23;;;;;;;13.45;2.10;;;;;;;16.11;89.62;100554.25;5045800;28;20383;-74
2023/07/05 00:56:50;;;;;;;13.27;2.33;;;;;;;16.13;89.70;100558.41;5057146;28;20024;-74
2023/07/05 00:59:18;;;;;;;9.55;2.10;;;;;;;16.17;89.15;100561.44;5056200;28;20036;-74
2023/07/05 01:01:44;;;;;;;8.25;1.80;;;;;;;16.11;89.99;100567.84;5057325;28;20025;-74
2023/07/05 01:04:10;;;;;;;16.92;2.20;;;;;;;16.12;90.46;100555.91;5057232;28;20035;-74
2023/07/05 01:06:39;;;;;;;10.50;2.22;;;;;;;15.90;89.75;100506.91;5039001;28;20083;-74
2023/07/05 01:09:06;;;;;;;12.90;2.03;;;;;;;16.07;90.50;100550.41;5039706;28;20043;-74
2023/07/05 01:11:51;;;;;;;15.63;2.38;;;;;;;16.11;90.23;100563.22;5023618;28;20033;-74
2023/07/05 01:14:43;;;;;;;12.35;2.15;;;;;;;16.16;89.79;100571.50;5039265;28;20017;-74
2023/07/05 01:17:17;;;;;;;9.00;2.08;;;;;;;16.08;90.24;100571.84;5034228;28;20039;-74
2023/07/05 01:20:06;;;;;;;13.13;2.78;;;;;;;16.08;90.42;100568.31;5056181;28;20103;-74
2023/07/05 01:22:47;;;;;;;8.27;2.03;;;;;;;16.05;89.95;100572.31;5038802;28;20059;-74
2023/07/05 01:25:42;;;;;;;11.40;2.15;;;;;;;16.16;89.25;100573.38;5037521;28;20024;-75
2023/07/05 01:28:49;;;;;;;9.27;2.00;;;;;;;16.16;89.42;100565.25;5043368;28;20087;-73
2023/07/05 01:31:33;;;;;;;9.60;2.03;;;;;;;16.20;88.99;100582.69;5007752;28;20122;-75
2023/07/05 01:34:19;;;;;;;16.92;2.65;;;;;;;16.13;89.83;100577.41;5042251;28;20040;-74
2023/07/05 01:36:44;;;;;;;14.38;2.20;;;;;;;16.03;90.81;100577.19;5035238;28;20087;-76
2023/07/05 01:39:10;;;;;;;13.13;2.55;;;;;;;15.81;90.62;100547.16;5030621;28;20434;-74
2023/07/05 01:41:35;;;;;;;13.05;2.50;;;;;;;15.91;90.41;100560.94;5038171;28;20032;-74
2023/07/05 01:44:01;;;;;;;10.43;2.17;;;;;;;16.00;90.24;100576.84;5056295;28;20377;-73
2023/07/05 01:46:41;;;;;;;11.27;2.13;;;;;;;16.07;90.19;100572.09;5021451;28;20032;-74
2023/07/05 01:49:19;;;;;;;14.52;2.80;;;;;;;16.06;89.73;100570.44;5055925;28;20025;-73
2023/07/05 01:51:56;;;;;;;8.32;1.83;;;;;;;15.95;90.18;100570.22;5057109;28;20029;-74
2023/07/05 01:54:28;;;;;;;13.05;2.17;;;;;;;15.82;90.90;100554.22;5044129;28;20044;-74
2023/07/05 01:57:19;;;;;;;13.27;2.85;;;;;;;15.93;90.49;100575.09;5050536;28;20029;-74
2023/07/05 01:59:59;;;;;;;11.27;1.92;;;;;;;15.89;90.36;100581.22;5037552;28;20036;-75
2023/07/05 02:02:30;;;;;;;9.95;1.80;;;;;;;15.88;90.51;100572.25;5006683;28;20020;-74
2023/07/05 02:04:59;;;;;;;9.90;2.00;;;;;;;15.94;90.42;100581.34;5055194;28;20017;-74
2023/07/05 02:07:29;;;;;;;10.38;1.80;;;;;;;15.79;90.30;100573.69;5055351;28;20029;-74
2023/07/05 02:09:55;;;;;;;8.95;1.75;;;;;;;15.88;90.44;100587.72;5036711;28;20049;-74
2023/07/05 02:12:21;;;;;;;12.18;1.92;;;;;;;15.89;90.45;100584.78;5037632;28;20086;-74
2023/07/05 02:14:48;;;;;;;9.00;1.98;;;;;;;15.93;90.43;100591.38;5037899;28;20510;-74
2023/07/05 02:17:14;;;;;;;10.07;1.70;;;;;;;15.89;90.67;100592.06;5020907;28;20032;-74
2023/07/05 02:19:39;;;;;;;16.17;2.50;;;;;;;15.99;90.63;100597.72;5054665;28;20029;-74
2023/07/05 02:22:05;;;;;;;10.90;1.90;;;;;;;15.97;90.59;100595.25;5019724;28;20037;-73
2023/07/05 02:24:31;;;;;;;12.95;1.98;;;;;;;15.82;91.10;100577.81;5054234;28;20361;-74
2023/07/05 02:26:59;;;;;;;8.57;1.70;;;;;;;15.87;91.20;100592.31;5036850;28;20072;-73
2023/07/05 02:29:25;;;;;;;10.32;1.90;;;;;;;15.73;91.28;100570.06;5036897;28;20116;-73
2023/07/05 02:31:51;;;;;;;11.98;2.10;;;;;;;15.89;91.16;100598.34;5036673;28;20025;-74
2023/07/05 02:34:17;;;;;;;11.95;2.30;;;;;;;15.86;90.79;100592.56;5053900;28;20024;-74
2023/07/05 02:36:42;;;;;;;7.25;1.60;;;;;;;15.93;90.81;100598.69;5036524;28;20111;-73
2023/07/05 02:39:08;;;;;;;6.78;1.70;;;;;;;15.76;90.93;100570.63;5035490;28;20060;-75
2023/07/05 02:41:34;;;;;;;12.43;1.80;;;;;;;15.94;90.33;100605.75;5019789;28;20025;-73
2023/07/05 02:43:59;;;;;;;9.82;1.90;;;;;;;15.97;90.52;100600.69;5036193;28;20132;-74
2023/07/05 02:46:26;;;;;;;11.80;1.75;;;;;;;16.09;90.05;100606.09;5054387;28;20029;-74
2023/07/05 02:48:56;;;;;;;10.77;1.85;;;;;;;16.40;88.65;100595.81;5057470;28;20036;-73
2023/07/05 02:51:23;;;;;;;10.27;2.13;;;;;;;16.59;86.55;100585.59;5036318;28;20037;-74
2023/07/05 02:53:48;;;;;;;8.25;1.98;;;;;;;16.96;85.17;100613.16;5036436;28;20021;-74
2023/07/05 02:56:15;;;;;;;9.50;1.80;;;;;;;16.93;85.11;100610.13;5061108;28;20031;-74
2023/07/05 02:58:40;;;;;;;7.22;2.22;;;;;;;16.97;84.49;100609.38;5062826;28;20040;-75
2023/07/05 03:01:06;;;;;;;8.82;2.35;;;;;;;17.26;83.41;100604.69;5042941;28;20025;-74
2023/07/05 03:03:31;;;;;;;8.00;1.67;;;;;;;17.69;81.06;100605.03;5036617;28;20078;-74
2023/07/05 03:05:58;;;;;;;10.38;1.73;;;;;;;18.16;79.11;100607.28;5054820;28;20036;-74
2023/07/05 03:08:25;;;;;;;10.15;1.60;;;;;;;18.39;77.64;100608.91;5036766;28;20056;-73
2023/07/05 03:11:09;;;;;;;8.82;1.55;;;;;;;18.89;76.46;100611.34;5054909;28;20257;-74
2023/07/05 03:13:34;;;;;;;9.90;2.03;;;;;;;19.13;73.85;100603.63;5004178;28;20025;-74
2023/07/05 03:16:01;;;;;;;10.77;1.48;;;;;;;19.48;72.60;100621.34;5036971;28;20032;-74
2023/07/05 03:18:27;;;;;;;9.18;2.08;;;;;;;19.57;71.26;100592.50;5054581;28;20021;-74
2023/07/05 03:20:54;;;;;;;10.32;2.10;;;;;;;19.71;71.03;100620.16;5036819;28;20098;-74
2023/07/05 03:23:20;;;;;;;8.70;1.70;;;;;;;19.93;70.06;100623.56;5020898;28;20059;-74
2023/07/05 03:26:03;;;;;;;7.28;1.95;;;;;;;20.24;69.27;100622.88;5037096;28;20121;-74
2023/07/05 03:28:32;;;;;;;5.90;1.50;;;;;;;20.30;68.12;100606.22;5052069;28;20029;-73
2023/07/05 03:31:01;;;;;;;8.10;2.03;;;;;;;20.33;67.66;100610.31;5034905;28;20025;-73
2023/07/05 03:33:26;;;;;;;7.25;1.55;;;;;;;20.39;66.82;100606.50;5057469;28;20021;-74
2023/07/05 03:35:58;;;;;;;8.27;1.65;;;;;;;20.95;65.84;100611.28;5037035;28;20033;-74
2023/07/05 03:38:25;;;;;;;10.95;1.48;;;;;;;20.92;64.58;100617.28;5036225;28;20037;-74
2023/07/05 03:41:04;;;;;;;10.80;2.00;;;;;;;21.26;64.26;100625.81;5036424;28;20581;-74
2023/07/05 03:43:35;;;;;;;11.20;1.90;;;;;;;21.24;63.08;100617.03;5057358;28;20372;-75
2023/07/05 03:46:01;;;;;;;6.00;1.48;;;;;;;21.05;62.39;100579.28;5040534;28;20047;-74
2023/07/05 03:48:29;;;;;;;9.23;2.00;;;;;;;21.77;61.20;100620.25;5057085;28;20480;-74
2023/07/05 03:50:56;;;;;;;8.98;1.50;;;;;;;21.83;60.09;100589.00;5058139;28;20029;-73
2023/07/05 03:53:22;;;;;;;12.95;1.75;;;;;;;21.73;60.51;100625.47;5059146;28;20024;-74
2023/07/05 03:55:47;;;;;;;7.78;1.60;;;;;;;21.90;59.57;100627.06;5057080;28;20021;-74
2023/07/05 03:58:13;;;;;;;10.50;1.67;;;;;;;22.15;58.90;100631.63;5060551;28;20032;-75
2023/07/05 04:00:38;;;;;;;9.20;1.50;;;;;;;22.27;58.56;100635.72;5040408;28;20045;-75
2023/07/05 04:03:04;;;;;;;7.43;1.58;;;;;;;22.73;57.85;100638.19;5060855;28;20033;-74
2023/07/05 04:05:30;;;;;;;7.30;1.50;;;;;;;22.66;57.61;100620.44;5042452;28;20121;-76
2023/07/05 04:07:56;;;;;;;8.68;1.60;;;;;;;22.91;57.28;100644.09;5007645;28;20025;-76
2023/07/05 04:10:22;;;;;;;5.93;1.60;;;;;;;23.26;56.36;100643.03;5043657;28;20116;-74
2023/07/05 04:12:49;;;;;;;10.00;1.90;;;;;;;23.21;56.64;100643.91;5024939;28;20064;-75
2023/07/05 04:15:14;;;;;;;8.50;1.50;;;;;;;23.63;55.74;100647.09;5041949;28;20477;-74
2023/07/05 04:17:39;;;;;;;9.60;1.77;;;;;;;23.48;56.05;100650.81;5025497;28;20033;-75
2023/07/05 04:20:06;;;;;;;11.10;2.00;;;;;;;23.42;55.92;100658.28;5024422;28;20033;-75
2023/07/05 04:22:33;;;;;;;12.93;1.73;;;;;;;23.54;55.10;100665.28;5023383;28;20037;-75
2023/07/05 04:24:59;;;;;;;7.80;1.70;;;;;;;23.35;55.79;100667.97;5039563;28;20037;-74
2023/07/05 04:27:24;;;;;;;12.77;1.63;;;;;;;22.07;59.43;100670.56;5022099;28;20064;-75
2023/07/05 04:29:50;;;;;;;9.23;1.90;;;;;;;22.21;59.26;100660.69;5021661;28;20033;-74
2023/07/05 04:32:15;;;;;;;8.52;1.60;;;;;;;22.87;57.28;100667.72;5038620;28;20041;-74
2023/07/05 04:34:41;;;;;;;8.73;1.52;;;;;;;23.32;56.21;100666.59;5020181;28;20029;-74
2023/07/05 04:37:06;;;;;;;6.68;1.52;;;;;;;23.50;55.42;100664.25;5021340;28;20061;-75
2023/07/05 04:39:36;;;;;;;10.35;1.80;;;;;;;23.54;55.03;100662.56;5005546;28;20037;-74
2023/07/05 04:42:03;;;;;;;13.30;2.17;;;;;;;23.77;54.39;100659.03;5022635;28;20389;-75
2023/07/05 04:44:28;;;;;;;6.50;1.58;;;;;;;23.87;54.13;100653.47;5041761;28;20049;-76
2023/07/05 04:46:54;;;;;;;6.55;1.58;;;;;;;23.68;54.66;100652.56;5025552;28;20036;-74
2023/07/05 04:49:19;;;;;;;10.50;1.77;;;;;;;23.46;55.06;100666.75;5060312;28;20048;-75
2023/07/05 04:51:45;;;;;;;10.48;1.60;;;;;;;22.48;58.26;100654.78;5027410;28;20108;-75
2023/07/05 04:54:13;;;;;;;7.95;1.70;;;;;;;21.99;59.75;100653.63;5026783;28;20521;-75
2023/07/05 04:56:38;;;;;;;9.02;1.88;;;;;;;22.07;60.08;100667.84;5062590;28;20020;-75
2023/07/05 04:59:03;;;;;;;10.45;2.00;;;;;;;22.62;59.24;100671.47;5028247;28;20040;-75
2023/07/05 05:01:29;;;;;;;8.25;1.90;;;;;;;22.15;59.32;100657.16;5068315;28;20040;-74
2023/07/05 05:03:55;;;;;;;10.85;1.80;;;;;;;21.81;60.43;100671.44;5042387;28;20025;-75
2023/07/05 05:06:20;;;;;;;9.77;1.92;;;;;;;21.84;60.38;100678.28;5041597;28;20102;-75
2023/07/05 05:08:45;;;;;;;7.78;1.90;;;;;;;22.07;59.88;100678.78;5041450;28;20033;-75
2023/07/05 05:11:11;;;;;;;5.22;1.70;;;;;;;22.12;59.80;100670.53;5024868;28;20032;-74
2023/07/05 05:13:38;;;;;;;8.45;1.58;;;;;;;21.84;60.92;100667.34;5042127;28;20025;-75
2023/07/05 05:16:04;;;;;;;10.38;1.75;;;;;;;22.28;59.31;100670.25;5041772;28;20104;-74
2023/07/05 05:18:31;;;;;;;7.28;1.55;;;;;;;22.50;58.29;100680.84;5059527;28;20054;-74
2023/07/05 05:20:58;;;;;;;8.13;1.45;;;;;;;22.56;58.35;100678.91;5059224;28;20085;-75
2023/07/05 05:23:24;;;;;;;11.20;1.63;;;;;;;21.70;60.56;100682.72;5023966;28;20124;-74
2023/07/05 05:25:50;;;;;;;8.07;1.73;;;;;;;21.65;61.63;100679.97;5041173;28;20108;-74
2023/07/05 05:28:16;;;;;;;8.57;1.75;;;;;;;21.83;61.64;100681.31;5059458;28;20025;-74
2023/07/05 05:30:43;;;;;;;9.32;1.67;;;;;;;21.50;60.93;100635.09;5031023;28;20022;-74
2023/07/05 05:33:09;;;;;;;7.45;1.30;;;;;;;21.88;60.74;100684.84;5031565;28;20071;-74
2023/07/05 05:35:35;;;;;;;6.68;1.50;;;;;;;21.81;60.32;100692.53;5034425;28;20033;-75
2023/07/05 05:38:02;;;;;;;8.00;1.40;;;;;;;21.98;60.38;100693.03;5050111;28;20033;-74
2023/07/05 05:40:28;;;;;;;11.40;1.70;;;;;;;22.08;60.00;100681.25;5047524;28;20097;-74
2023/07/05 05:42:53;;;;;;;8.23;1.35;;;;;;;22.20;60.62;100680.97;5047133;28;20130;-74
2023/07/05 05:45:19;;;;;;;8.75;1.48;;;;;;;22.35;60.23;100683.66;5029381;28;20088;-74
2023/07/05 05:47:44;;;;;;;7.03;1.58;;;;;;;22.32;60.02;100683.38;5032580;28;20026;-74
2023/07/05 05:50:10;;;;;;;9.30;1.67;;;;;;;22.24;59.66;100693.81;5040284;28;20036;-74
2023/07/05 05:52:36;;;;;;;9.70;1.77;;;;;;;22.19;59.91;100691.13;5018530;28;20037;-75
2023/07/05 05:55:02;;;;;;;6.53;1.35;;;;;;;22.09;60.31;100706.75;5021745;28;20040;-75
2023/07/05 05:57:27;;;;;;;13.75;1.63;;;;;;;21.63;60.41;100706.81;5049138;28;20104;-75
2023/07/05 05:59:53;;;;;;;6.07;1.20;;;;;;;21.73;60.17;100718.59;5048572;28;20005;-74
2023/07/05 06:02:19;;;;;;;8.88;1.50;;;;;;;21.47;60.23;100708.75;5019850;28;20037;-74
2023/07/05 06:04:44;;;;;;;6.03;1.40;;;;;;;21.33;60.58;100678.34;5037877;28;20140;-74
2023/07/05 06:07:10;;;;;;;9.27;1.48;;;;;;;20.93;61.51;100707.31;5003466;28;20041;-74
2023/07/05 06:09:42;;;;;;;5.97;1.40;;;;;;;20.54;62.64;100721.41;5037000;28;20040;-74
2023/07/05 06:12:08;;;;;;;4.80;1.40;;;;;;;20.74;62.66;100711.63;5036294;28;20114;-72
2023/07/05 06:14:33;;;;;;;10.70;1.75;;;;;;;20.77;62.00;100711.91;5019133;28;20443;-74
2023/07/05 06:16:59;;;;;;;8.45;1.60;;;;;;;21.00;62.79;100707.84;5038724;28;20059;-76
2023/07/05 06:19:24;;;;;;;9.23;2.03;;;;;;;20.94;62.34;100688.97;5006302;28;20056;-79
2023/07/05 06:21:50;;;;;;;9.10;1.60;;;;;;;21.12;62.17;100704.84;5021481;28;20033;-74
2023/07/05 06:24:15;;;;;;;7.60;1.50;;;;;;;21.13;61.53;100703.78;5034943;28;20489;-73
2023/07/05 06:26:41;;;;;;;6.40;1.48;;;;;;;20.96;61.06;100711.38;5038673;28;20056;-77
2023/07/05 06:29:07;;;;;;;8.25;1.42;;;;;;;20.69;61.88;100701.47;5040245;28;20036;-76
2023/07/05 06:31:33;;;;;;;7.18;1.70;;;;;;;20.46;63.09;100707.38;5040156;28;20094;-74
2023/07/05 06:34:01;;;;;;;5.00;1.25;;;;;;;20.56;62.97;100712.91;5027755;28;20028;-77
2023/07/05 06:36:27;;;;;;;8.27;1.48;;;;;;;20.51;62.51;100693.78;5026519;28;20037;-73
2023/07/05 06:38:53;;;;;;;7.55;1.55;;;;;;;20.77;62.42;100716.56;5028047;28;20128;-73
2023/07/05 06:41:18;;;;;;;6.60;1.30;;;;;;;20.86;62.69;100718.50;5048959;28;20021;-73
2023/07/05 06:43:44;;;;;;;6.38;1.42;;;;;;;21.23;62.01;100711.19;5044890;28;20080;-72
2023/07/05 06:46:09;;;;;;;5.85;1.55;;;;;;;21.72;61.58;100716.94;5041372;28;20025;-75
2023/07/05 06:48:35;;;;;;;7.28;1.63;;;;;;;21.96;61.28;100719.09;5042332;28;20039;-75
2023/07/05 06:51:00;;;;;;;7.05;1.50;;;;;;;21.66;59.72;100700.81;5047461;28;20056;-74
2023/07/05 06:53:26;;;;;;;8.23;1.30;;;;;;;21.63;61.03;100726.00;5025065;28;20052;-73
2023/07/05 06:55:51;;;;;;;6.55;1.40;;;;;;;21.66;61.34;100719.97;5040378;28;20025;-73
2023/07/05 06:58:19;;;;;;;6.25;1.23;;;;;;;21.96;60.63;100717.19;5053099;28;20105;-73
2023/07/05 07:00:51;;;;;;;10.55;1.88;;;;;;;21.90;60.89;100709.25;5044462;28;20034;-74
2023/07/05 07:03:17;;;;;;;8.75;1.60;;;;;;;21.75;61.95;100727.31;5041885;28;20022;-74
2023/07/05 07:05:56;;;;;;;7.97;1.50;;;;;;;21.40;62.23;100719.97;5056824;28;20021;-76
2023/07/05 07:08:24;;;;;;;8.85;1.95;;;;;;;21.23;62.90;100730.34;5058090;28;20017;-76
2023/07/05 07:10:49;;;;;;;8.82;2.15;;;;;;;21.26;63.08;100702.44;5042819;28;20035;-75
2023/07/05 07:13:15;;;;;;;5.40;1.33;;;;;;;21.35;63.23;100719.94;5054022;28;20111;-73
2023/07/05 07:15:41;;;;;;;8.75;1.63;;;;;;;21.25;63.72;100725.38;5025443;28;20506;-75
2023/07/05 07:18:10;;;;;;;6.03;1.75;;;;;;;21.11;63.79;100725.09;5036621;28;20059;-75
2023/07/05 07:20:36;;;;;;;8.55;1.65;;;;;;;21.45;62.74;100709.00;5046439;28;20023;-75
2023/07/05 07:23:13;;;;;;;6.55;1.55;;;;;;;21.66;62.66;100726.25;5024085;28;20029;-75
2023/07/05 07:25:39;;;;;;;10.65;1.90;;;;;;;21.98;61.86;100733.31;5013444;28;20033;-78
2023/07/05 07:28:05;;;;;;;7.95;1.70;;;;;;;22.06;61.11;100713.59;5047404;28;20055;-76
2023/07/05 07:30:31;;;;;;;7.22;1.80;;;;;;;22.30;60.74;100729.44;5037443;28;20060;-76
2023/07/05 07:32:56;;;;;;;7.15;1.73;;;;;;;22.43;60.04;100729.69;5022278;28;20044;-80
2023/07/05 07:35:21;;;;;;;9.90;1.40;;;;;;;22.10;60.88;100735.78;5041394;28;20135;-76
2023/07/05 07:38:02;;;;;;;7.22;1.70;;;;;;;22.15;60.93;100735.75;5024558;28;20029;-75
2023/07/05 07:40:27;;;;;;;5.82;1.70;;;;;;;22.35;60.23;100732.16;4998075;28;20041;-75
2023/07/05 07:42:53;;;;;;;8.23;1.50;;;;;;;22.56;59.61;100733.75;5034752;28;20032;-75
2023/07/05 07:45:19;;;;;;;9.10;1.63;;;;;;;22.41;59.51;100723.63;5019228;28;20518;-75
2023/07/05 07:47:44;;;;;;;8.65;1.73;;;;;;;22.02;59.75;100739.91;5067977;28;20057;-75
2023/07/05 07:50:13;;;;;;;7.22;1.80;;;;;;;21.74;60.49;100744.06;5037907;28;20119;-75
2023/07/05 07:52:38;;;;;;;8.60;2.03;;;;;;;21.83;60.36;100742.41;5044602;28;20100;-75
2023/07/05 07:55:05;;;;;;;8.27;1.73;;;;;;;21.74;60.41;100733.91;5058145;28;20068;-75
2023/07/05 07:57:30;;;;;;;6.00;1.55;;;;;;;21.91;60.53;100741.84;5054239;28;20056;-75
2023/07/05 07:59:56;;;;;;;7.93;1.73;;;;;;;22.02;60.67;100735.25;5038299;28;20033;-75
2023/07/05 08:02:22;;;;;;;9.15;1.70;;;;;;;22.15;59.94;100736.63;5055824;28;20040;-76
2023/07/05 08:04:47;;;;;;;6.13;1.63;;;;;;;22.09;59.69;100737.72;5056432;28;20056;-76
2023/07/05 08:07:16;;;;;;;9.10;1.85;;;;;;;22.38;59.53;100726.94;5023877;28;20029;-75
2023/07/05 08:09:41;;;;;;;7.38;1.95;;;;;;;22.34;59.36;100739.56;5039687;28;20036;-75
2023/07/05 08:12:08;;;;;;;8.60;1.60;;;;;;;22.27;59.33;100736.31;5039154;28;20029;-75
2023/07/05 08:14:33;;;;;;;7.60;1.60;;;;;;;22.31;58.72;100742.06;5040543;28;20039;-75
2023/07/05 08:16:59;;;;;;;8.88;1.65;;;;;;;22.22;58.15;100734.41;5024594;28;20024;-75
2023/07/05 08:19:25;;;;;;;6.82;1.77;;;;;;;22.26;58.79;100734.69;5039449;28;20072;-75
2023/07/05 08:21:50;;;;;;;6.30;1.70;;;;;;;22.54;58.57;100735.13;5040262;28;20025;-75
2023/07/05 08:24:16;;;;;;;8.13;1.30;;;;;;;22.73;58.81;100736.13;5040251;28;20029;-75
2023/07/05 08:26:42;;;;;;;5.93;1.80;;;;;;;22.69;59.16;100738.63;5040386;28;20037;-74
2023/07/05 08:29:08;;;;;;;6.47;1.42;;;;;;;22.48;59.38;100737.03;5056203;28;20029;-74
2023/07/05 08:31:34;;;;;;;5.60;1.55;;;;;;;22.41;59.34;100734.59;5030247;28;20035;-73
2023/07/05 08:34:01;;;;;;;5.63;1.70;;;;;;;22.57;58.66;100740.03;5047339;28;20123;-74
2023/07/05 08:36:37;;;;;;;4.35;1.17;;;;;;;22.62;57.73;100734.53;5040563;28;20120;-75
2023/07/05 08:39:05;;;;;;;8.90;1.85;;;;;;;22.59;56.58;100735.94;5022281;28;20030;-74
2023/07/05 08:41:45;;;;;;;6.43;1.30;;;;;;;22.60;56.27;100745.78;5054688;28;20052;-74
2023/07/05 08:44:38;;;;;;;8.50;1.85;;;;;;;22.66;55.73;100749.34;5039643;28;20407;-74
2023/07/05 08:47:16;;;;;;;4.97;1.45;;;;;;;22.69;55.33;100743.28;5041211;28;20032;-74
2023/07/05 08:50:01;;;;;;;9.90;1.67;;;;;;;22.63;54.90;100745.22;5066904;28;20025;-73
2023/07/05 08:52:36;;;;;;;8.52;1.80;;;;;;;22.69;55.60;100743.28;5070101;28;20028;-74
2023/07/05 08:55:08;;;;;;;7.40;1.50;;;;;;;22.66;54.77;100743.84;5022414;28;20022;-73
2023/07/05 08:57:51;;;;;;;6.40;1.60;;;;;;;22.55;54.88;100723.03;5021783;28;20510;-73
2023/07/05 09:00:38;;;;;;;6.53;1.55;;;;;;;22.84;55.31;100751.41;5021402;28;20124;-73
2023/07/05 09:03:10;;;;;;;10.35;1.90;;;;;;;22.85;55.64;100747.59;5037690;28;20632;-73
2023/07/05 09:05:47;;;;;;;7.40;2.00;;;;;;;22.73;55.25;100736.13;5020385;28;20033;-73
2023/07/05 09:08:15;;;;;;;7.43;2.08;;;;;;;22.97;54.93;100748.09;5036840;28;20029;-73
2023/07/05 09:10:47;;;;;;;7.38;1.85;;;;;;;23.18;55.36;100734.25;5019417;28;20026;-73
2023/07/05 09:13:37;;;;;;;8.98;2.40;;;;;;;23.17;54.65;100719.69;5036794;28;20049;-73
2023/07/05 09:16:23;;;;;;;9.57;3.22;;;;;;;23.11;55.91;100729.09;5036558;28;20125;-73
2023/07/05 09:19:05;;;;;;;7.80;2.45;;;;;;;23.09;56.30;100741.44;5021094;28;20025;-73
2023/07/05 09:21:42;;;;;;;8.57;2.15;;;;;;;23.03;56.76;100731.59;5038499;28;20369;-73
2023/07/05 09:24:20;;;;;;;10.57;2.08;;;;;;;23.00;57.44;100737.66;5038944;28;20026;-73
2023/07/05 09:26:58;;;;;;;8.85;2.38;;;;;;;23.15;57.40;100734.81;5039386;28;20021;-73
2023/07/05 09:29:34;;;;;;;9.65;2.25;;;;;;;23.23;57.62;100730.66;5021304;28;20033;-73
2023/07/05 09:32:07;;;;;;;12.38;3.00;;;;;;;23.39;58.04;100729.44;5037526;28;20018;-74
2023/07/05 09:34:55;;;;;;;9.25;2.33;;;;;;;23.60;58.17;100724.56;5038623;28;20052;-73
2023/07/05 09:37:23;;;;;;;12.00;2.75;;;;;;;23.49;58.50;100723.84;5036288;28;20041;-73
2023/07/05 09:40:02;;;;;;;10.88;2.55;;;;;;;23.54;59.19;100715.59;5052679;28;20033;-73
2023/07/05 09:42:38;;;;;;;11.65;2.40;;;;;;;23.41;59.56;100716.22;5040490;28;20143;-73
2023/07/05 09:45:04;;;;;;;9.93;2.83;;;;;;;23.28;60.22;100716.88;5040167;28;20071;-73
2023/07/05 09:47:30;;;;;;;11.05;2.40;;;;;;;23.30;60.07;100726.47;5058590;28;20036;-73
2023/07/05 09:49:55;;;;;;;8.30;2.35;;;;;;;23.24;60.40;100700.16;5058353;28;20021;-73
2023/07/05 09:52:24;;;;;;;9.25;2.53;;;;;;;23.43;60.24;100725.00;5021405;28;20484;-73
2023/07/05 09:54:59;;;;;;;11.35;2.50;;;;;;;23.56;59.68;100716.09;5061587;28;20032;-74
2023/07/05 09:57:26;;;;;;;10.82;2.40;;;;;;;23.67;59.63;100722.31;5064265;28;20025;-74
2023/07/05 09:59:52;;;;;;;8.35;2.17;;;;;;;23.78;58.62;100714.84;5023247;28;20053;-75
2023/07/05 10:02:31;;;;;;;8.27;1.98;;;;;;;23.96;58.02;100713.28;5020800;28;20043;-73
2023/07/05 10:05:13;;;;;;;9.35;1.60;;;;;;;23.94;57.48;100713.59;5019864;28;20025;-73
2023/07/05 10:07:52;;;;;;;8.93;2.08;;;;;;;24.04;57.74;100713.47;5037188;28;20052;-73
2023/07/05 10:10:18;;;;;;;6.80;1.92;;;;;;;23.97;58.03;100701.97;5019359;28;20025;-73
2023/07/05 10:12:44;;;;;;;8.63;2.17;;;;;;;23.90;58.41;100707.81;5018899;28;20017;-73
2023/07/05 10:15:30;;;;;;;8.52;2.08;;;;;;;23.78;58.82;100701.09;5019512;28;20025;-73
2023/07/05 10:17:57;;;;;;;7.38;2.20;;;;;;;23.84;58.70;100678.78;5037076;28;20029;-73
2023/07/05 10:20:25;;;;;;;8.23;2.13;;;;;;;24.08;58.41;100708.22;5037691;28;20041;-73
2023/07/05 10:23:23;;;;;;;6.78;2.05;;;;;;;24.11;58.70;100691.13;5019837;28;20022;-73
2023/07/05 10:25:51;;;;;;;7.53;1.67;;;;;;;23.99;58.49;100698.97;5019102;28;20033;-74
2023/07/05 10:28:21;;;;;;;7.57;2.03;;;;;;;24.05;58.64;100697.78;5018576;28;20411;-73
2023/07/05 10:31:00;;;;;;;8.75;1.65;;;;;;;24.00;58.26;100682.16;5018986;28;20492;-72
2023/07/05 10:33:28;;;;;;;7.97;1.70;;;;;;;24.14;58.22;100701.53;5037129;28;20026;-73
2023/07/05 10:36:10;;;;;;;8.93;2.03;;;;;;;24.08;58.51;100694.47;5049517;28;20728;-73
2023/07/05 10:38:39;;;;;;;5.65;1.70;;;;;;;23.94;58.75;100688.00;5039503;28;20120;-77
2023/07/05 10:41:31;;;;;;;7.70;1.95;;;;;;;23.95;58.94;100670.44;5046868;28;20199;-73
2023/07/05 10:44:38;;;;;;;10.63;2.45;;;;;;;24.19;58.99;100693.22;5048657;28;20053;-73
2023/07/05 10:47:05;;;;;;;9.93;2.00;;;;;;;24.18;58.57;100694.34;4986870;28;20527;-73
2023/07/05 10:49:33;;;;;;;8.35;1.85;;;;;;;24.07;58.86;100687.31;5036304;28;20037;-75
2023/07/05 10:52:04;;;;;;;6.82;1.90;;;;;;;23.97;58.82;100684.69;5041992;28;20510;-74
2023/07/05 10:54:58;;;;;;;8.30;1.92;;;;;;;23.94;59.08;100679.75;5036678;28;20040;-73
2023/07/05 10:57:32;;;;;;;6.03;1.80;;;;;;;23.79;59.52;100678.81;5050129;28;20044;-72
2023/07/05 11:00:07;;;;;;;;;;;;;;;23.93;59.57;100670.69;5047075;28;20025;-74
2023/07/05 11:02:41;;;;;;;7.35;2.05;;;;;;;23.88;59.52;100671.59;5056193;28;19940;-73
2023/07/05 11:05:30;;;;;;;;;;;;;;;23.81;59.30;100665.63;5053738;28;20025;-73
2023/07/05 11:08:01;;;;;;;8.80;2.17;;;;;;;23.66;59.82;100663.00;5023420;28;19913;-73
2023/07/05 11:10:29;;;;;;;7.22;1.90;;;;;;;23.57;60.34;100670.22;5054775;28;20070;-73
2023/07/05 11:12:56;;;;;;;7.32;1.95;;;;;;;23.52;60.51;100673.84;5057164;28;20090;-72
2023/07/05 11:15:22;;;;;;;8.57;2.25;;;;;;;23.50;61.02;100677.97;5047324;28;20087;-72
2023/07/05 11:17:49;;;;;;;9.45;2.10;;;;;;;23.40;61.15;100676.94;5020986;28;20025;-75
2023/07/05 11:20:33;;;;;;;8.23;1.95;;;;;;;23.33;61.34;100667.41;5065270;28;20037;-76
2023/07/05 11:22:59;;;;;;;6.78;1.70;;;;;;;23.27;61.72;100666.63;5049041;28;20025;-74
2023/07/05 11:26:00;;;;;;;8.20;2.15;;;;;;;23.28;62.26;100665.53;5044567;28;20028;-73
2023/07/05 11:28:34;;;;;;;7.78;2.13;;;;;;;23.38;62.16;100662.72;5054010;28;20021;-74
2023/07/05 11:31:01;;;;;;;9.27;2.00;;;;;;;23.34;63.04;100658.88;5031940;28;20112;-74
2023/07/05 11:33:27;;;;;;;11.40;2.00;;;;;;;23.44;63.28;100658.81;5063600;28;20085;-73
2023/07/05 11:35:55;;;;;;;7.43;1.80;;;;;;;23.47;63.54;100643.66;5046523;28;20025;-73